This is the latest recevied weather packets stored in our database for station/object SV1JCZ-13. If no packets are shown the sender has not sent any weather packets the latest 10 day(s).
| Time | Temp. | Humidity | Pressure | Rain* | Wind** | Luminosity | Snow |
|---|---|---|---|---|---|---|---|
| 1777918145 | 13.89° C | 50% | 0 hPa | 0 mm | - | - | - |
| 1777917785 | 13.89° C | 49% | 0 hPa | 0 mm | - | - | - |
| 1777917425 | 13.89° C | 49% | 0 hPa | 0 mm | - | - | - |
| 1777917065 | 14.44° C | 49% | 0 hPa | 0 mm | - | - | - |
| 1777916705 | 14.44° C | 48% | 0 hPa | 0 mm | - | - | - |
| 1777916345 | 15° C | 48% | 0 hPa | 0 mm | - | - | - |
| 1777915985 | 15.56° C | 47% | 0 hPa | 0 mm | - | - | - |
| 1777915625 | 16.11° C | 47% | 0 hPa | 0 mm | - | - | - |
| 1777915265 | 16.11° C | 46% | 0 hPa | 0 mm | - | - | - |
| 1777914905 | 16.67° C | 44% | 0 hPa | 0 mm | - | - | - |
| 1777914545 | 17.22° C | 43% | 0 hPa | 0 mm | - | - | - |
| 1777914185 | 17.78° C | 41% | 0 hPa | 0 mm | - | - | - |
| 1777913825 | 18.33° C | 38% | 0 hPa | 0 mm | - | - | - |
| 1777913465 | 18.89° C | 35% | 0 hPa | 0 mm | - | - | - |
| 1777913105 | 19.44° C | 32% | 0 hPa | 0 mm | - | - | - |
| 1777912385 | 21.67° C | 27% | 0 hPa | 0 mm | - | - | - |
| 1777912025 | 22.78° C | 26% | 0 hPa | 0 mm | - | - | - |
| 1777911665 | 23.89° C | 23% | 0 hPa | 0 mm | - | - | - |
| 1777911305 | 24.44° C | 22% | 0 hPa | 0 mm | - | - | - |
| 1777910945 | 24.44° C | 22% | 0 hPa | 0 mm | - | - | - |
| 1777910585 | 24.44° C | 22% | 0 hPa | 0 mm | - | - | - |
| 1777910225 | 23.89° C | 23% | 0 hPa | 0 mm | - | - | - |
| 1777909865 | 23.33° C | 23% | 0 hPa | 0 mm | - | - | - |
| 1777909505 | 22.78° C | 23% | 0 hPa | 0 mm | - | - | - |
| 1777909145 | 22.78° C | 22% | 0 hPa | 0 mm | - | - | - |
* Rain latest hour (hover to see other rain measurements)
** Current wind speed in m/s (hover to see current wind gust speed)